sensor_id;sensor_type;location;lat;lon;timestamp;pressure;altitude;pressure_sealevel;temperature;humidity
55801;BME280;41730;51.960;20.158;2023-04-26T00:02:22;99468.40;;;9.46;66.73
55801;BME280;41730;51.960;20.158;2023-04-26T00:04:54;99467.16;;;9.56;66.43
55801;BME280;41730;51.960;20.158;2023-04-26T00:07:27;99473.80;;;9.44;66.39
55801;BME280;41730;51.960;20.158;2023-04-26T00:09:59;99473.55;;;9.37;66.68
55801;BME280;41730;51.960;20.158;2023-04-26T00:12:31;99473.15;;;9.24;66.88
55801;BME280;41730;51.960;20.158;2023-04-26T00:15:04;99473.09;;;9.19;67.05
55801;BME280;41730;51.960;20.158;2023-04-26T00:17:36;99470.80;;;9.21;67.10
55801;BME280;41730;51.960;20.158;2023-04-26T00:20:10;99472.98;;;9.16;67.12
55801;BME280;41730;51.960;20.158;2023-04-26T00:22:42;99477.46;;;9.09;67.07
55801;BME280;41730;51.960;20.158;2023-04-26T00:25:14;99481.61;;;9.08;66.97
55801;BME280;41730;51.960;20.158;2023-04-26T00:27:47;99482.73;;;9.13;66.96
55801;BME280;41730;51.960;20.158;2023-04-26T00:30:18;99482.28;;;9.08;67.11
55801;BME280;41730;51.960;20.158;2023-04-26T00:32:50;99481.02;;;9.04;66.90
55801;BME280;41730;51.960;20.158;2023-04-26T00:35:22;99485.64;;;8.95;67.31
55801;BME280;41730;51.960;20.158;2023-04-26T00:37:54;99485.77;;;8.98;66.99
55801;BME280;41730;51.960;20.158;2023-04-26T00:40:25;99487.96;;;8.99;67.14
55801;BME280;41730;51.960;20.158;2023-04-26T00:42:59;99489.34;;;9.07;66.65
55801;BME280;41730;51.960;20.158;2023-04-26T00:45:31;99487.05;;;9.09;66.68
55801;BME280;41730;51.960;20.158;2023-04-26T00:48:03;99488.36;;;9.14;65.98
55801;BME280;41730;51.960;20.158;2023-04-26T00:50:35;99489.27;;;9.04;66.25
55801;BME280;41730;51.960;20.158;2023-04-26T00:53:08;99492.73;;;8.95;66.24
55801;BME280;41730;51.960;20.158;2023-04-26T00:55:40;99499.41;;;8.82;66.83
55801;BME280;41730;51.960;20.158;2023-04-26T00:58:13;99500.97;;;8.68;67.17
55801;BME280;41730;51.960;20.158;2023-04-26T01:00:45;99501.41;;;8.52;67.49
55801;BME280;41730;51.960;20.158;2023-04-26T01:03:17;99501.85;;;8.53;67.49
55801;BME280;41730;51.960;20.158;2023-04-26T01:05:49;99507.98;;;8.49;66.88
55801;BME280;41730;51.960;20.158;2023-04-26T01:08:20;99505.75;;;8.49;66.70
55801;BME280;41730;51.960;20.158;2023-04-26T01:10:52;99502.18;;;8.54;66.06
55801;BME280;41730;51.960;20.158;2023-04-26T01:13:25;99503.90;;;8.54;65.57
55801;BME280;41730;51.960;20.158;2023-04-26T01:15:58;99507.55;;;8.46;65.57
55801;BME280;41730;51.960;20.158;2023-04-26T01:18:30;99506.32;;;8.40;65.43
55801;BME280;41730;51.960;20.158;2023-04-26T01:21:01;99507.41;;;8.41;64.95
55801;BME280;41730;51.960;20.158;2023-04-26T01:23:34;99510.04;;;8.25;64.81
55801;BME280;41730;51.960;20.158;2023-04-26T01:26:05;99510.35;;;8.31;64.66
55801;BME280;41730;51.960;20.158;2023-04-26T01:28:37;99516.39;;;8.26;64.52
55801;BME280;41730;51.960;20.158;2023-04-26T01:31:08;99516.54;;;8.20;64.41
55801;BME280;41730;51.960;20.158;2023-04-26T01:33:40;99523.12;;;8.23;64.40
55801;BME280;41730;51.960;20.158;2023-04-26T01:36:11;99523.64;;;8.17;64.24
55801;BME280;41730;51.960;20.158;2023-04-26T01:38:43;99527.04;;;8.05;64.38
55801;BME280;41730;51.960;20.158;2023-04-26T01:41:15;99528.30;;;8.05;64.28
55801;BME280;41730;51.960;20.158;2023-04-26T01:43:46;99525.85;;;7.90;64.64
55801;BME280;41730;51.960;20.158;2023-04-26T01:46:18;99525.61;;;7.86;64.48
55801;BME280;41730;51.960;20.158;2023-04-26T01:48:49;99528.68;;;7.93;64.21
55801;BME280;41730;51.960;20.158;2023-04-26T01:51:21;99532.20;;;7.93;63.86
55801;BME280;41730;51.960;20.158;2023-04-26T01:53:53;99537.45;;;7.72;64.31
55801;BME280;41730;51.960;20.158;2023-04-26T01:56:24;99541.67;;;7.65;64.36
55801;BME280;41730;51.960;20.158;2023-04-26T01:58:56;99544.02;;;7.46;64.60
55801;BME280;41730;51.960;20.158;2023-04-26T02:01:28;99542.63;;;7.36;64.80
55801;BME280;41730;51.960;20.158;2023-04-26T02:04:00;99545.09;;;7.31;64.83
55801;BME280;41730;51.960;20.158;2023-04-26T02:06:32;99539.73;;;7.30;64.71
55801;BME280;41730;51.960;20.158;2023-04-26T02:09:04;99543.41;;;7.37;64.51
55801;BME280;41730;51.960;20.158;2023-04-26T02:11:35;99543.90;;;7.41;64.00
55801;BME280;41730;51.960;20.158;2023-04-26T02:14:07;99542.34;;;7.24;64.40
55801;BME280;41730;51.960;20.158;2023-04-26T02:16:39;99542.92;;;7.21;64.29
55801;BME280;41730;51.960;20.158;2023-04-26T02:19:11;99545.36;;;7.21;64.12
55801;BME280;41730;51.960;20.158;2023-04-26T02:21:57;99541.75;;;7.18;63.98
55801;BME280;41730;51.960;20.158;2023-04-26T02:24:28;99547.70;;;7.00;64.27
55801;BME280;41730;51.960;20.158;2023-04-26T02:27:02;99551.70;;;6.96;64.39
55801;BME280;41730;51.960;20.158;2023-04-26T02:29:34;99548.10;;;7.01;64.07
55801;BME280;41730;51.960;20.158;2023-04-26T02:32:13;99546.06;;;6.99;63.95
55801;BME280;41730;51.960;20.158;2023-04-26T02:34:45;99549.00;;;6.88;64.06
55801;BME280;41730;51.960;20.158;2023-04-26T02:37:17;99546.02;;;6.86;64.15
55801;BME280;41730;51.960;20.158;2023-04-26T02:39:52;99544.71;;;6.85;64.02
55801;BME280;41730;51.960;20.158;2023-04-26T02:42:23;99546.12;;;6.78;64.13
55801;BME280;41730;51.960;20.158;2023-04-26T02:44:55;99545.79;;;6.64;64.27
55801;BME280;41730;51.960;20.158;2023-04-26T02:47:28;99546.34;;;6.41;64.92
55801;BME280;41730;51.960;20.158;2023-04-26T02:50:00;99544.80;;;6.38;65.10
55801;BME280;41730;51.960;20.158;2023-04-26T02:52:32;99544.77;;;6.41;64.74
55801;BME280;41730;51.960;20.158;2023-04-26T02:55:07;99546.30;;;6.30;64.94
55801;BME280;41730;51.960;20.158;2023-04-26T02:57:39;99546.63;;;6.23;65.24
55801;BME280;41730;51.960;20.158;2023-04-26T03:00:12;99547.13;;;6.37;64.79
55801;BME280;41730;51.960;20.158;2023-04-26T03:02:44;99546.50;;;6.30;64.86
55801;BME280;41730;51.960;20.158;2023-04-26T03:05:16;99543.95;;;6.24;64.93
55801;BME280;41730;51.960;20.158;2023-04-26T03:07:48;99549.95;;;6.28;64.70
55801;BME280;41730;51.960;20.158;2023-04-26T03:10:20;99550.25;;;6.22;64.83
55801;BME280;41730;51.960;20.158;2023-04-26T03:12:52;99554.01;;;6.23;64.71
55801;BME280;41730;51.960;20.158;2023-04-26T03:15:23;99555.16;;;6.18;64.61
55801;BME280;41730;51.960;20.158;2023-04-26T03:17:55;99558.58;;;6.12;64.72
55801;BME280;41730;51.960;20.158;2023-04-26T03:20:27;99563.73;;;6.28;64.54
55801;BME280;41730;51.960;20.158;2023-04-26T03:22:59;99560.58;;;6.18;64.50
55801;BME280;41730;51.960;20.158;2023-04-26T03:25:31;99565.09;;;6.11;64.60
55801;BME280;41730;51.960;20.158;2023-04-26T03:28:03;99565.11;;;6.04;64.64
55801;BME280;41730;51.960;20.158;2023-04-26T03:30:36;99569.36;;;5.96;64.91
55801;BME280;41730;51.960;20.158;2023-04-26T03:33:07;99573.65;;;5.94;65.02
55801;BME280;41730;51.960;20.158;2023-04-26T03:35:39;99573.52;;;6.01;65.00
55801;BME280;41730;51.960;20.158;2023-04-26T03:38:11;99573.84;;;6.13;64.52
55801;BME280;41730;51.960;20.158;2023-04-26T03:40:43;99578.13;;;6.16;64.42
55801;BME280;41730;51.960;20.158;2023-04-26T03:43:14;99578.91;;;6.13;64.39
55801;BME280;41730;51.960;20.158;2023-04-26T03:45:48;99582.27;;;6.10;64.52
55801;BME280;41730;51.960;20.158;2023-04-26T03:48:25;99580.88;;;6.00;64.77
55801;BME280;41730;51.960;20.158;2023-04-26T03:51:06;99582.67;;;6.09;64.56
55801;BME280;41730;51.960;20.158;2023-04-26T03:53:46;99580.48;;;6.03;64.85
55801;BME280;41730;51.960;20.158;2023-04-26T03:56:28;99585.16;;;6.11;64.95
55801;BME280;41730;51.960;20.158;2023-04-26T03:59:07;99587.02;;;6.13;65.19
55801;BME280;41730;51.960;20.158;2023-04-26T04:01:49;99590.40;;;6.22;65.68
55801;BME280;41730;51.960;20.158;2023-04-26T04:04:31;99589.50;;;6.50;65.81
55801;BME280;41730;51.960;20.158;2023-04-26T04:07:09;99590.05;;;6.73;65.55
55801;BME280;41730;51.960;20.158;2023-04-26T04:09:40;99594.01;;;6.76;65.41
55801;BME280;41730;51.960;20.158;2023-04-26T04:12:12;99598.39;;;6.78;65.97
55801;BME280;41730;51.960;20.158;2023-04-26T04:14:44;99598.10;;;7.06;66.46
55801;BME280;41730;51.960;20.158;2023-04-26T04:17:16;99592.48;;;7.51;66.73
55801;BME280;41730;51.960;20.158;2023-04-26T04:19:47;99597.02;;;8.01;66.80
55801;BME280;41730;51.960;20.158;2023-04-26T04:22:19;99594.58;;;8.56;66.46
55801;BME280;41730;51.960;20.158;2023-04-26T04:24:52;99592.84;;;9.12;65.47
55801;BME280;41730;51.960;20.158;2023-04-26T04:27:24;99594.15;;;9.61;64.75
55801;BME280;41730;51.960;20.158;2023-04-26T04:29:56;99597.45;;;9.98;64.25
55801;BME280;41730;51.960;20.158;2023-04-26T04:32:27;99596.19;;;10.43;63.65
55801;BME280;41730;51.960;20.158;2023-04-26T04:35:02;99596.88;;;10.83;63.43
55801;BME280;41730;51.960;20.158;2023-04-26T04:37:34;99591.80;;;11.20;62.40
55801;BME280;41730;51.960;20.158;2023-04-26T04:40:10;99586.98;;;11.51;61.83
55801;BME280;41730;51.960;20.158;2023-04-26T04:42:42;99591.15;;;11.78;61.83
55801;BME280;41730;51.960;20.158;2023-04-26T04:45:16;99594.73;;;12.10;61.28
55801;BME280;41730;51.960;20.158;2023-04-26T04:47:48;99602.05;;;12.46;60.35
55801;BME280;41730;51.960;20.158;2023-04-26T04:50:19;99602.39;;;12.81;59.61
55801;BME280;41730;51.960;20.158;2023-04-26T04:52:54;99600.25;;;13.07;58.62
55801;BME280;41730;51.960;20.158;2023-04-26T04:55:26;99601.92;;;13.15;58.33
55801;BME280;41730;51.960;20.158;2023-04-26T04:57:59;99606.33;;;13.22;58.68
55801;BME280;41730;51.960;20.158;2023-04-26T05:00:33;99610.66;;;13.43;58.29
55801;BME280;41730;51.960;20.158;2023-04-26T05:03:07;99605.83;;;13.59;57.80
55801;BME280;41730;51.960;20.158;2023-04-26T05:05:39;99608.33;;;13.82;57.00
55801;BME280;41730;51.960;20.158;2023-04-26T05:08:10;99607.31;;;13.89;56.72
55801;BME280;41730;51.960;20.158;2023-04-26T05:10:42;99610.14;;;14.18;55.89
55801;BME280;41730;51.960;20.158;2023-04-26T05:13:15;99615.60;;;14.36;55.32
55801;BME280;41730;51.960;20.158;2023-04-26T05:15:48;99612.67;;;14.48;54.41
55801;BME280;41730;51.960;20.158;2023-04-26T05:18:20;99616.22;;;14.52;53.80
55801;BME280;41730;51.960;20.158;2023-04-26T05:20:52;99617.15;;;14.41;52.67
55801;BME280;41730;51.960;20.158;2023-04-26T05:23:23;99616.83;;;14.23;52.81
55801;BME280;41730;51.960;20.158;2023-04-26T05:25:55;99617.13;;;14.14;52.89
55801;BME280;41730;51.960;20.158;2023-04-26T05:28:27;99618.67;;;14.16;52.91
55801;BME280;41730;51.960;20.158;2023-04-26T05:30:59;99621.08;;;14.18;52.44
55801;BME280;41730;51.960;20.158;2023-04-26T05:33:31;99619.36;;;14.22;52.08
55801;BME280;41730;51.960;20.158;2023-04-26T05:36:03;99620.71;;;14.13;51.73
55801;BME280;41730;51.960;20.158;2023-04-26T05:38:36;99618.34;;;14.20;51.54
55801;BME280;41730;51.960;20.158;2023-04-26T05:41:07;99619.27;;;14.32;51.02
55801;BME280;41730;51.960;20.158;2023-04-26T05:43:39;99621.74;;;14.41;50.79
55801;BME280;41730;51.960;20.158;2023-04-26T05:46:11;99626.45;;;14.42;50.78
55801;BME280;41730;51.960;20.158;2023-04-26T05:48:42;99624.17;;;14.45;50.73
55801;BME280;41730;51.960;20.158;2023-04-26T05:51:15;99625.46;;;14.56;50.28
55801;BME280;41730;51.960;20.158;2023-04-26T05:53:47;99631.39;;;14.58;50.14
55801;BME280;41730;51.960;20.158;2023-04-26T05:56:19;99624.95;;;14.41;50.29
55801;BME280;41730;51.960;20.158;2023-04-26T05:58:54;99628.50;;;14.62;50.27
55801;BME280;41730;51.960;20.158;2023-04-26T06:01:26;99628.41;;;14.83;49.62
55801;BME280;41730;51.960;20.158;2023-04-26T06:03:58;99630.69;;;14.72;49.69
55801;BME280;41730;51.960;20.158;2023-04-26T06:06:30;99634.19;;;14.54;49.69
55801;BME280;41730;51.960;20.158;2023-04-26T06:09:03;99634.88;;;14.46;50.23
55801;BME280;41730;51.960;20.158;2023-04-26T06:11:34;99632.80;;;14.75;49.74
55801;BME280;41730;51.960;20.158;2023-04-26T06:14:06;99636.92;;;14.93;49.65
55801;BME280;41730;51.960;20.158;2023-04-26T06:16:58;99640.70;;;15.04;49.54
55801;BME280;41730;51.960;20.158;2023-04-26T06:19:30;99644.14;;;15.22;49.02
55801;BME280;41730;51.960;20.158;2023-04-26T06:22:02;99640.85;;;15.31;47.96
55801;BME280;41730;51.960;20.158;2023-04-26T06:24:33;99645.17;;;15.20;47.56
55801;BME280;41730;51.960;20.158;2023-04-26T06:27:05;99648.45;;;15.06;48.02
55801;BME280;41730;51.960;20.158;2023-04-26T06:29:38;99646.23;;;14.96;48.02
55801;BME280;41730;51.960;20.158;2023-04-26T06:32:10;99641.20;;;14.99;47.59
55801;BME280;41730;51.960;20.158;2023-04-26T06:34:42;99643.52;;;14.98;47.28
55801;BME280;41730;51.960;20.158;2023-04-26T06:37:14;99644.81;;;15.16;47.25
55801;BME280;41730;51.960;20.158;2023-04-26T06:39:46;99647.73;;;15.41;46.78
55801;BME280;41730;51.960;20.158;2023-04-26T06:42:18;99649.19;;;15.32;46.64
55801;BME280;41730;51.960;20.158;2023-04-26T06:44:50;99643.23;;;15.24;46.22
55801;BME280;41730;51.960;20.158;2023-04-26T06:47:23;99646.14;;;15.03;46.16
55801;BME280;41730;51.960;20.158;2023-04-26T06:49:55;99650.81;;;14.83;46.00
55801;BME280;41730;51.960;20.158;2023-04-26T06:52:27;99653.84;;;14.51;46.69
55801;BME280;41730;51.960;20.158;2023-04-26T06:55:01;99651.63;;;14.59;46.99
55801;BME280;41730;51.960;20.158;2023-04-26T06:57:33;99649.16;;;14.77;46.44
55801;BME280;41730;51.960;20.158;2023-04-26T07:00:08;99657.28;;;14.65;46.04
55801;BME280;41730;51.960;20.158;2023-04-26T07:02:40;99654.59;;;14.38;46.32
55801;BME280;41730;51.960;20.158;2023-04-26T07:05:12;99652.63;;;14.24;46.86
55801;BME280;41730;51.960;20.158;2023-04-26T07:07:45;99653.42;;;14.25;46.71
55801;BME280;41730;51.960;20.158;2023-04-26T07:10:19;99658.64;;;14.33;46.41
55801;BME280;41730;51.960;20.158;2023-04-26T07:12:52;99660.34;;;14.32;46.31
55801;BME280;41730;51.960;20.158;2023-04-26T07:15:24;99659.83;;;14.18;46.49
55801;BME280;41730;51.960;20.158;2023-04-26T07:17:56;99659.88;;;14.11;46.51
55801;BME280;41730;51.960;20.158;2023-04-26T07:20:29;99661.45;;;14.08;46.70
55801;BME280;41730;51.960;20.158;2023-04-26T07:23:00;99663.66;;;14.15;46.60
55801;BME280;41730;51.960;20.158;2023-04-26T07:25:32;99666.61;;;14.22;46.97
55801;BME280;41730;51.960;20.158;2023-04-26T07:28:04;99666.98;;;14.29;47.27
55801;BME280;41730;51.960;20.158;2023-04-26T07:30:36;99665.27;;;14.40;46.69
55801;BME280;41730;51.960;20.158;2023-04-26T07:33:08;99665.59;;;14.44;46.97
55801;BME280;41730;51.960;20.158;2023-04-26T07:35:41;99668.21;;;14.39;46.95
55801;BME280;41730;51.960;20.158;2023-04-26T07:38:13;99672.42;;;14.56;46.25
55801;BME280;41730;51.960;20.158;2023-04-26T07:40:49;99666.25;;;14.65;45.71
55801;BME280;41730;51.960;20.158;2023-04-26T07:43:21;99668.52;;;14.48;45.26
55801;BME280;41730;51.960;20.158;2023-04-26T07:45:53;99672.34;;;14.30;45.59
55801;BME280;41730;51.960;20.158;2023-04-26T07:48:25;99675.02;;;14.30;45.55
55801;BME280;41730;51.960;20.158;2023-04-26T07:51:02;99679.10;;;14.05;45.70
55801;BME280;41730;51.960;20.158;2023-04-26T07:53:37;99680.54;;;13.82;46.05
55801;BME280;41730;51.960;20.158;2023-04-26T07:56:09;99678.29;;;13.80;45.33
55801;BME280;41730;51.960;20.158;2023-04-26T07:58:41;99676.55;;;13.62;45.28
55801;BME280;41730;51.960;20.158;2023-04-26T08:01:13;99687.11;;;13.32;45.93
55801;BME280;41730;51.960;20.158;2023-04-26T08:03:45;99697.20;;;13.27;46.05
55801;BME280;41730;51.960;20.158;2023-04-26T08:06:18;99700.63;;;13.24;46.32
55801;BME280;41730;51.960;20.158;2023-04-26T08:08:51;99700.70;;;13.31;46.05
55801;BME280;41730;51.960;20.158;2023-04-26T08:11:23;99702.05;;;13.29;46.61
55801;BME280;41730;51.960;20.158;2023-04-26T08:13:54;99702.55;;;13.53;46.28
55801;BME280;41730;51.960;20.158;2023-04-26T08:16:26;99708.63;;;13.66;45.93
55801;BME280;41730;51.960;20.158;2023-04-26T08:18:58;99704.41;;;13.63;45.52
55801;BME280;41730;51.960;20.158;2023-04-26T08:21:32;99703.27;;;13.60;45.57
55801;BME280;41730;51.960;20.158;2023-04-26T08:24:05;99698.05;;;13.61;45.24
55801;BME280;41730;51.960;20.158;2023-04-26T08:26:37;99699.77;;;13.62;43.40
55801;BME280;41730;51.960;20.158;2023-04-26T08:29:08;99702.63;;;13.46;43.75
55801;BME280;41730;51.960;20.158;2023-04-26T08:31:41;99705.17;;;13.33;44.03
55801;BME280;41730;51.960;20.158;2023-04-26T08:34:12;99707.91;;;13.44;44.48
55801;BME280;41730;51.960;20.158;2023-04-26T08:36:44;99712.90;;;13.69;44.71
55801;BME280;41730;51.960;20.158;2023-04-26T08:39:16;99706.77;;;14.06;43.93
55801;BME280;41730;51.960;20.158;2023-04-26T08:41:52;99708.16;;;14.20;42.78
55801;BME280;41730;51.960;20.158;2023-04-26T08:44:25;99704.98;;;14.26;41.41
55801;BME280;41730;51.960;20.158;2023-04-26T08:47:02;99705.98;;;14.05;40.43
55801;BME280;41730;51.960;20.158;2023-04-26T08:49:41;99711.84;;;13.98;41.05
55801;BME280;41730;51.960;20.158;2023-04-26T08:52:13;99708.34;;;13.96;41.15
55801;BME280;41730;51.960;20.158;2023-04-26T08:54:47;99718.48;;;14.12;41.84
55801;BME280;41730;51.960;20.158;2023-04-26T08:57:20;99709.11;;;14.66;41.05
55801;BME280;41730;51.960;20.158;2023-04-26T08:59:54;99710.95;;;15.07;39.76
55801;BME280;41730;51.960;20.158;2023-04-26T09:02:25;99714.38;;;15.11;38.89
55801;BME280;41730;51.960;20.158;2023-04-26T09:04:58;99718.29;;;15.09;39.32
55801;BME280;41730;51.960;20.158;2023-04-26T09:07:38;99718.22;;;14.68;39.03
55801;BME280;41730;51.960;20.158;2023-04-26T09:10:13;99725.52;;;14.29;38.95
55801;BME280;41730;51.960;20.158;2023-04-26T09:12:52;99730.95;;;13.94;39.76
55801;BME280;41730;51.960;20.158;2023-04-26T09:15:25;99731.69;;;13.92;40.45
55801;BME280;41730;51.960;20.158;2023-04-26T09:17:57;99733.85;;;13.79;40.45
55801;BME280;41730;51.960;20.158;2023-04-26T09:21:03;99731.92;;;13.78;40.03
55801;BME280;41730;51.960;20.158;2023-04-26T09:23:35;99730.47;;;14.09;39.43
55801;BME280;41730;51.960;20.158;2023-04-26T09:26:26;99736.95;;;14.11;38.01
55801;BME280;41730;51.960;20.158;2023-04-26T09:29:16;99728.58;;;14.02;38.47
55801;BME280;41730;51.960;20.158;2023-04-26T09:31:48;99728.64;;;14.14;38.87
55801;BME280;41730;51.960;20.158;2023-04-26T09:34:20;99724.48;;;14.39;38.86
55801;BME280;41730;51.960;20.158;2023-04-26T09:37:02;99724.95;;;14.49;38.79
55801;BME280;41730;51.960;20.158;2023-04-26T09:39:52;99737.05;;;14.37;38.83
55801;BME280;41730;51.960;20.158;2023-04-26T09:42:31;99741.51;;;14.32;39.27
55801;BME280;41730;51.960;20.158;2023-04-26T09:45:08;99740.03;;;14.10;38.36
55801;BME280;41730;51.960;20.158;2023-04-26T09:47:40;99737.52;;;13.97;38.86
55801;BME280;41730;51.960;20.158;2023-04-26T09:50:12;99735.41;;;14.02;38.81
55801;BME280;41730;51.960;20.158;2023-04-26T09:52:47;99735.36;;;14.06;37.79
55801;BME280;41730;51.960;20.158;2023-04-26T09:55:26;99737.77;;;14.16;37.78
55801;BME280;41730;51.960;20.158;2023-04-26T09:58:10;99736.34;;;14.12;38.02
55801;BME280;41730;51.960;20.158;2023-04-26T10:00:42;99737.05;;;13.91;38.33
55801;BME280;41730;51.960;20.158;2023-04-26T10:03:14;99739.13;;;13.70;38.92
55801;BME280;41730;51.960;20.158;2023-04-26T10:05:48;99744.64;;;13.74;38.67
55801;BME280;41730;51.960;20.158;2023-04-26T10:08:20;99741.18;;;13.97;38.65
55801;BME280;41730;51.960;20.158;2023-04-26T10:10:52;99742.00;;;14.20;38.49
55801;BME280;41730;51.960;20.158;2023-04-26T10:13:24;99746.26;;;14.16;38.47
55801;BME280;41730;51.960;20.158;2023-04-26T10:15:56;99745.80;;;14.05;38.30
55801;BME280;41730;51.960;20.158;2023-04-26T10:18:28;99745.62;;;13.97;38.66
55801;BME280;41730;51.960;20.158;2023-04-26T10:21:01;99753.81;;;14.00;38.46
55801;BME280;41730;51.960;20.158;2023-04-26T10:23:35;99756.35;;;13.80;38.88
55801;BME280;41730;51.960;20.158;2023-04-26T10:26:08;99759.37;;;13.68;38.98
55801;BME280;41730;51.960;20.158;2023-04-26T10:28:59;99751.72;;;13.65;38.97
55801;BME280;41730;51.960;20.158;2023-04-26T10:32:10;99750.64;;;13.67;38.66
55801;BME280;41730;51.960;20.158;2023-04-26T10:35:09;99746.30;;;13.70;38.64
55801;BME280;41730;51.960;20.158;2023-04-26T10:40:26;99760.11;;;13.88;38.23
55801;BME280;41730;51.960;20.158;2023-04-26T10:46:34;99755.81;;;13.70;37.73
55801;BME280;41730;51.960;20.158;2023-04-26T10:49:17;99757.34;;;13.79;36.91
55801;BME280;41730;51.960;20.158;2023-04-26T10:52:15;99756.76;;;13.61;37.32
55801;BME280;41730;51.960;20.158;2023-04-26T10:54:50;99752.62;;;13.58;37.90
55801;BME280;41730;51.960;20.158;2023-04-26T10:57:25;99758.22;;;13.62;37.52
55801;BME280;41730;51.960;20.158;2023-04-26T11:00:22;99757.85;;;13.54;38.04
55801;BME280;41730;51.960;20.158;2023-04-26T11:03:11;99757.30;;;13.52;38.32
55801;BME280;41730;51.960;20.158;2023-04-26T11:05:52;99761.73;;;13.54;38.30
55801;BME280;41730;51.960;20.158;2023-04-26T11:08:28;99761.12;;;13.65;38.58
55801;BME280;41730;51.960;20.158;2023-04-26T11:11:07;99758.03;;;13.74;38.25
55801;BME280;41730;51.960;20.158;2023-04-26T11:13:42;99755.89;;;13.79;38.48
55801;BME280;41730;51.960;20.158;2023-04-26T11:16:14;99759.80;;;13.74;37.83
55801;BME280;41730;51.960;20.158;2023-04-26T11:18:48;99767.83;;;13.61;37.51
55801;BME280;41730;51.960;20.158;2023-04-26T11:21:22;99767.63;;;13.63;37.53
55801;BME280;41730;51.960;20.158;2023-04-26T11:23:57;99771.97;;;13.52;37.41
55801;BME280;41730;51.960;20.158;2023-04-26T11:26:34;99784.63;;;13.29;37.83
55801;BME280;41730;51.960;20.158;2023-04-26T11:29:08;99782.98;;;13.23;38.26
55801;BME280;41730;51.960;20.158;2023-04-26T11:31:42;99781.61;;;13.22;38.26
55801;BME280;41730;51.960;20.158;2023-04-26T11:34:14;99788.08;;;13.16;38.34
55801;BME280;41730;51.960;20.158;2023-04-26T11:36:46;99781.79;;;12.99;38.32
55801;BME280;41730;51.960;20.158;2023-04-26T11:39:20;99785.59;;;12.98;38.41
55801;BME280;41730;51.960;20.158;2023-04-26T11:41:57;99780.42;;;12.98;38.71
55801;BME280;41730;51.960;20.158;2023-04-26T11:44:36;99792.78;;;12.93;38.13
55801;BME280;41730;51.960;20.158;2023-04-26T11:47:08;99793.73;;;12.78;38.03
55801;BME280;41730;51.960;20.158;2023-04-26T11:49:41;99798.83;;;12.59;38.11
55801;BME280;41730;51.960;20.158;2023-04-26T11:52:13;99804.60;;;12.44;38.42
55801;BME280;41730;51.960;20.158;2023-04-26T11:54:46;99810.64;;;12.31;38.24
55801;BME280;41730;51.960;20.158;2023-04-26T11:57:19;99812.21;;;12.14;39.17
55801;BME280;41730;51.960;20.158;2023-04-26T11:59:50;99811.63;;;12.15;39.73
55801;BME280;41730;51.960;20.158;2023-04-26T12:02:26;99809.79;;;12.31;39.58
55801;BME280;41730;51.960;20.158;2023-04-26T12:08:47;99819.48;;;12.12;39.27
55801;BME280;41730;51.960;20.158;2023-04-26T12:11:20;99820.27;;;12.26;39.06
55801;BME280;41730;51.960;20.158;2023-04-26T12:13:52;99813.64;;;12.18;38.79
55801;BME280;41730;51.960;20.158;2023-04-26T12:16:24;99816.98;;;12.20;38.94
55801;BME280;41730;51.960;20.158;2023-04-26T12:18:56;99806.90;;;12.33;38.96
55801;BME280;41730;51.960;20.158;2023-04-26T12:21:28;99805.36;;;12.36;38.76
55801;BME280;41730;51.960;20.158;2023-04-26T12:24:00;99808.77;;;12.50;38.70
55801;BME280;41730;51.960;20.158;2023-04-26T12:26:43;99809.59;;;12.53;38.96
55801;BME280;41730;51.960;20.158;2023-04-26T12:29:15;99811.46;;;12.62;39.52
55801;BME280;41730;51.960;20.158;2023-04-26T12:31:47;99809.31;;;12.72;39.06
55801;BME280;41730;51.960;20.158;2023-04-26T12:34:19;99817.91;;;12.67;38.97
55801;BME280;41730;51.960;20.158;2023-04-26T12:36:51;99815.88;;;12.66;38.96
55801;BME280;41730;51.960;20.158;2023-04-26T12:39:23;99819.36;;;12.72;38.95
55801;BME280;41730;51.960;20.158;2023-04-26T12:41:59;99823.38;;;12.67;38.49
55801;BME280;41730;51.960;20.158;2023-04-26T12:44:35;99823.81;;;12.60;38.79
55801;BME280;41730;51.960;20.158;2023-04-26T12:47:20;99826.73;;;12.43;38.95
55801;BME280;41730;51.960;20.158;2023-04-26T12:49:56;99830.42;;;12.39;39.40
55801;BME280;41730;51.960;20.158;2023-04-26T12:52:32;99827.97;;;12.30;39.57
55801;BME280;41730;51.960;20.158;2023-04-26T12:55:05;99833.61;;;12.28;39.72
55801;BME280;41730;51.960;20.158;2023-04-26T12:57:39;99838.19;;;12.35;39.51
55801;BME280;41730;51.960;20.158;2023-04-26T13:00:14;99836.55;;;12.32;39.42
55801;BME280;41730;51.960;20.158;2023-04-26T13:02:46;99833.62;;;12.14;39.72
55801;BME280;41730;51.960;20.158;2023-04-26T13:05:19;99832.38;;;12.07;39.23
55801;BME280;41730;51.960;20.158;2023-04-26T13:07:51;99831.70;;;12.28;38.80
55801;BME280;41730;51.960;20.158;2023-04-26T13:10:24;99824.07;;;12.47;38.66
55801;BME280;41730;51.960;20.158;2023-04-26T13:12:56;99821.80;;;12.54;38.31
55801;BME280;41730;51.960;20.158;2023-04-26T13:15:28;99823.23;;;12.65;37.58
55801;BME280;41730;51.960;20.158;2023-04-26T13:18:05;99826.26;;;12.58;37.18
55801;BME280;41730;51.960;20.158;2023-04-26T13:20:41;99834.24;;;12.48;37.42
55801;BME280;41730;51.960;20.158;2023-04-26T13:23:16;99845.33;;;12.32;37.78
55801;BME280;41730;51.960;20.158;2023-04-26T13:25:52;99832.90;;;12.26;37.93
55801;BME280;41730;51.960;20.158;2023-04-26T13:28:26;99839.28;;;12.42;37.50
55801;BME280;41730;51.960;20.158;2023-04-26T13:30:58;99841.69;;;12.33;37.24
55801;BME280;41730;51.960;20.158;2023-04-26T13:33:30;99848.30;;;12.25;37.35
55801;BME280;41730;51.960;20.158;2023-04-26T13:36:02;99849.38;;;12.21;37.49
55801;BME280;41730;51.960;20.158;2023-04-26T13:38:36;99853.17;;;12.29;37.43